Time;durP1;ratioP1;P1;durP2;ratioP2;P2;SDS_P1;SDS_P2;PMS_P1;PMS_P2;Temp;Humidity;BMP_temperature;BMP_pressure;BME280_temperature;BME280_humidity;BME280_pressure;Samples;Min_cycle;Max_cycle;Signal;HPM_P1;HPM_P2
2022/12/25 00:01:37;;;;;;;68.40;37.60;;;;;;;2.62;100.00;100929.56;107732;1264;57538;-78
2022/12/25 00:04:06;;;;;;;68.50;39.90;;;;;;;2.51;100.00;100930.83;107715;1263;70873;-77
2022/12/25 00:06:35;;;;;;;70.00;38.20;;;;;;;2.39;100.00;100934.33;107839;1267;72055;-79
2022/12/25 00:09:04;;;;;;;75.90;41.50;;;;;;;2.31;100.00;100934.45;107726;1264;61849;-74
2022/12/25 00:11:32;;;;;;;72.80;37.70;;;;;;;2.26;100.00;100939.41;107643;1267;72331;-75
2022/12/25 00:14:01;;;;;;;83.90;43.70;;;;;;;2.25;100.00;100941.70;107566;1273;57236;-76
2022/12/25 00:16:30;;;;;;;76.50;43.60;;;;;;;2.25;100.00;100944.10;107709;1263;57156;-74
2022/12/25 00:19:00;;;;;;;77.70;44.90;;;;;;;2.29;100.00;100944.82;107700;1260;62099;-74
2022/12/25 00:21:29;;;;;;;79.00;44.30;;;;;;;2.28;100.00;100942.11;107861;1263;72161;-74
2022/12/25 00:23:58;;;;;;;78.20;43.20;;;;;;;2.32;100.00;100947.15;107724;1263;71014;-74
2022/12/25 00:26:27;;;;;;;84.70;42.60;;;;;;;2.39;100.00;100946.36;107738;1264;74322;-75
2022/12/25 00:28:57;;;;;;;68.90;39.00;;;;;;;2.47;100.00;100956.92;107597;1262;62393;-76
2022/12/25 00:31:26;;;;;;;70.00;36.90;;;;;;;2.47;100.00;100961.59;107718;1269;57721;-75
2022/12/25 00:33:55;;;;;;;78.10;41.50;;;;;;;2.38;100.00;100966.34;107770;1263;72915;-76
2022/12/25 00:36:24;;;;;;;73.40;40.40;;;;;;;2.23;100.00;100961.53;107910;1262;72984;-76
2022/12/25 00:38:52;;;;;;;72.90;39.90;;;;;;;2.20;100.00;100960.08;107726;1259;70789;-77
2022/12/25 00:44:12;;;;;;;81.80;44.00;;;;;;;2.06;100.00;100959.00;107690;1270;61838;-75
2022/12/25 00:46:42;;;;;;;85.70;47.80;;;;;;;2.03;100.00;100960.98;107658;1273;57159;-73
2022/12/25 00:49:12;;;;;;;86.80;49.30;;;;;;;2.06;100.00;100962.80;107777;1260;71671;-72
2022/12/25 00:51:41;;;;;;;79.20;41.90;;;;;;;2.15;100.00;100962.52;107903;1254;71449;-74
2022/12/25 00:54:09;;;;;;;85.00;45.40;;;;;;;2.18;100.00;100962.56;107770;1259;69999;-72
2022/12/25 00:56:38;;;;;;;84.70;46.30;;;;;;;2.10;100.00;100962.48;107754;1264;62930;-72
2022/12/25 00:59:07;;;;;;;95.30;50.00;;;;;;;2.02;100.00;100962.91;107741;1260;57635;-74
2022/12/25 01:01:37;;;;;;;93.10;49.80;;;;;;;2.06;100.00;100961.23;107596;1264;60226;-75
2022/12/25 01:04:07;;;;;;;92.10;51.10;;;;;;;2.17;100.00;100961.39;107593;1263;62658;-75
2022/12/25 01:06:36;;;;;;;86.90;48.90;;;;;;;2.26;100.00;100960.22;107876;1258;61443;-75
2022/12/25 01:11:53;;;;;;;91.40;49.70;;;;;;;2.34;100.00;100961.50;107597;1266;73050;-74
2022/12/25 01:14:21;;;;;;;92.10;49.70;;;;;;;2.44;100.00;100962.39;107776;1260;60796;-75
2022/12/25 01:16:50;;;;;;;89.20;49.30;;;;;;;2.48;100.00;100961.39;107745;1263;57106;-76
2022/12/25 01:19:19;;;;;;;87.20;47.30;;;;;;;2.52;100.00;100962.24;107786;1263;62135;-75
2022/12/25 01:21:48;;;;;;;91.80;47.50;;;;;;;2.59;100.00;100965.28;107878;1258;60870;-76
2022/12/25 01:24:17;;;;;;;81.00;45.30;;;;;;;2.63;100.00;100964.45;107728;1264;69731;-72
2022/12/25 01:26:45;;;;;;;78.20;46.60;;;;;;;2.66;100.00;100969.48;107644;1264;74178;-73
2022/12/25 01:29:14;;;;;;;78.10;45.60;;;;;;;2.68;100.00;100967.38;107766;1262;57654;-73
2022/12/25 01:31:43;;;;;;;84.70;47.40;;;;;;;2.62;100.00;100964.33;107764;1260;57433;-74
2022/12/25 01:34:12;;;;;;;88.40;48.90;;;;;;;2.53;100.00;100963.45;107748;1260;71840;-72
2022/12/25 01:36:41;;;;;;;85.50;46.90;;;;;;;2.51;100.00;100967.97;107838;1261;72576;-74
2022/12/25 01:39:09;;;;;;;80.40;47.30;;;;;;;2.52;100.00;100968.28;107706;1263;69400;-74
2022/12/25 01:41:38;;;;;;;83.90;47.30;;;;;;;2.51;100.00;100968.83;107712;1262;63739;-73
2022/12/25 01:44:36;;;;;;;87.60;49.10;;;;;;;2.58;100.00;100966.34;107682;1267;57322;-74
2022/12/25 01:47:06;;;;;;;88.40;49.20;;;;;;;2.56;100.00;100961.41;107732;1258;60310;-74
2022/12/25 01:49:39;;;;;;;84.10;47.70;;;;;;;2.57;100.00;100961.91;107695;1263;73999;-74
2022/12/25 01:52:18;;;;;;;78.00;46.40;;;;;;;2.60;100.00;100961.64;107709;1267;72007;-74
2022/12/25 01:54:58;;;;;;;88.10;50.00;;;;;;;2.53;100.00;100960.54;107810;1269;62118;-74
2022/12/25 01:57:35;;;;;;;84.30;48.50;;;;;;;2.54;100.00;100964.41;107656;1260;63574;-74
2022/12/25 02:00:07;;;;;;;79.90;44.00;;;;;;;2.62;100.00;100967.42;107555;1270;57684;-75
2022/12/25 02:02:37;;;;;;;70.20;38.60;;;;;;;2.68;100.00;100967.55;107673;1262;58017;-75
2022/12/25 02:05:21;;;;;;;85.40;47.50;;;;;;;2.63;100.00;100967.02;107573;1261;73583;-75
2022/12/25 02:07:51;;;;;;;84.20;46.40;;;;;;;2.51;100.00;100966.95;107860;1261;61399;-76
2022/12/25 02:10:20;;;;;;;85.10;49.40;;;;;;;2.44;100.00;100968.71;107661;1264;59160;-75
2022/12/25 02:12:50;;;;;;;89.90;51.80;;;;;;;2.46;100.00;100970.20;107654;1264;71996;-75
2022/12/25 02:15:34;;;;;;;85.60;50.20;;;;;;;2.45;100.00;100972.98;107712;1260;60292;-75
2022/12/25 02:18:32;;;;;;;91.10;49.70;;;;;;;2.47;100.00;100970.33;107660;1263;61458;-75
2022/12/25 02:21:19;;;;;;;87.20;49.20;;;;;;;2.48;100.00;100972.21;107479;1263;62993;-80
2022/12/25 02:24:17;;;;;;;84.30;47.00;;;;;;;2.43;100.00;100976.14;107829;1255;62267;-74
2022/12/25 02:27:13;;;;;;;88.70;49.30;;;;;;;2.51;100.00;100978.81;107674;1266;59998;-77
2022/12/25 02:30:00;;;;;;;85.50;48.20;;;;;;;2.61;100.00;100979.50;107680;1260;63409;-78
2022/12/25 02:32:46;;;;;;;95.70;52.10;;;;;;;2.60;100.00;100980.21;107778;1260;57639;-76
2022/12/25 02:35:30;;;;;;;84.70;48.10;;;;;;;2.66;100.00;100979.84;107726;1267;57673;-76
2022/12/25 02:38:17;;;;;;;85.40;49.00;;;;;;;2.72;100.00;100979.80;107702;1254;73516;-76
2022/12/25 02:40:55;;;;;;;89.50;49.30;;;;;;;2.72;100.00;100985.45;107787;1261;71858;-75
2022/12/25 03:07:16;;;;;;;;;;;;;;;2.91;100.00;101011.27;107694;1268;62415;-78
2022/12/25 03:13:02;;;;;;;86.40;49.70;;;;;;;2.88;100.00;101022.55;107776;1266;62729;-77
2022/12/25 03:18:26;;;;;;;83.50;48.20;;;;;;;2.85;100.00;101031.41;107753;1265;70959;-76
2022/12/25 03:26:54;;;;;;;80.10;49.40;;;;;;;2.71;100.00;101042.41;107752;1264;57621;-80
2022/12/25 03:32:45;;;;;;;86.90;51.30;;;;;;;2.71;100.00;101051.01;107865;1259;71896;-71
2022/12/25 03:35:33;;;;;;;87.30;50.40;;;;;;;2.82;100.00;101054.93;107931;1254;70459;-72
2022/12/25 04:36:48;;;;;;;60.10;35.50;;;;;;;3.18;100.00;101101.70;107670;1262;60928;-77
2022/12/25 04:39:17;;;;;;;58.90;34.90;;;;;;;3.24;100.00;101106.30;107713;1259;73876;-77
2022/12/25 04:41:45;;;;;;;50.70;29.60;;;;;;;3.32;100.00;101106.70;107746;1259;72619;-76
2022/12/25 04:44:14;;;;;;;45.80;27.60;;;;;;;3.48;100.00;101106.13;107755;1265;59855;-76
2022/12/25 04:46:43;;;;;;;49.70;31.40;;;;;;;3.62;100.00;101100.77;107771;1265;62909;-75
2022/12/25 04:49:12;;;;;;;40.20;25.90;;;;;;;3.71;100.00;101103.16;107529;1262;57373;-76
2022/12/25 04:51:41;;;;;;;40.40;24.20;;;;;;;3.83;100.00;101105.83;107753;1260;57986;-75
2022/12/25 04:54:09;;;;;;;24.30;14.50;;;;;;;3.98;100.00;101106.80;107694;1264;72673;-76
2022/12/25 04:56:38;;;;;;;23.70;14.80;;;;;;;4.15;100.00;101114.27;107882;1263;61444;-77
2022/12/25 04:59:13;;;;;;;18.90;13.10;;;;;;;4.31;100.00;101116.39;107792;1259;69870;-77
2022/12/25 05:01:41;;;;;;;16.80;10.80;;;;;;;4.49;100.00;101124.77;107626;1269;71871;-75
2022/12/25 05:04:10;;;;;;;13.80;9.90;;;;;;;4.63;100.00;101124.92;107845;1256;62840;-78
2022/12/25 05:06:39;;;;;;;15.40;9.90;;;;;;;4.76;100.00;101128.52;107625;1264;57714;-75
2022/12/25 05:09:08;;;;;;;33.50;18.70;;;;;;;4.84;100.00;101132.86;107610;1267;62047;-75
2022/12/25 05:11:37;;;;;;;25.90;17.90;;;;;;;4.83;100.00;101132.20;107574;1257;61728;-75
2022/12/25 05:14:06;;;;;;;15.70;9.90;;;;;;;4.80;100.00;101131.64;107636;1258;59917;-79
2022/12/25 05:16:35;;;;;;;13.70;8.30;;;;;;;4.90;100.00;101129.84;107511;1266;63165;-75
2022/12/25 05:19:04;;;;;;;11.90;8.20;;;;;;;5.08;100.00;101138.58;107556;1262;61061;-75
2022/12/25 05:21:32;;;;;;;9.00;6.30;;;;;;;5.22;100.00;101139.18;107585;1259;60985;-76
2022/12/25 05:24:01;;;;;;;9.20;7.50;;;;;;;5.35;100.00;101145.88;107553;1259;62371;-80
2022/12/25 05:26:30;;;;;;;9.40;5.70;;;;;;;5.40;100.00;101140.61;107757;1264;61385;-78
2022/12/25 05:28:59;;;;;;;8.70;6.50;;;;;;;5.47;100.00;101146.56;107630;1262;70921;-78
2022/12/25 05:31:28;;;;;;;9.70;6.40;;;;;;;5.51;100.00;101148.25;107739;1259;74075;-76
2022/12/25 05:33:56;;;;;;;12.00;7.30;;;;;;;5.46;100.00;101154.89;107719;1267;63183;-78
2022/12/25 05:36:25;;;;;;;7.70;6.60;;;;;;;5.41;100.00;101161.15;107750;1262;57691;-77
2022/12/25 05:38:54;;;;;;;8.80;5.80;;;;;;;5.40;100.00;101166.91;107733;1259;61938;-76
2022/12/25 05:41:24;;;;;;;7.60;5.10;;;;;;;5.43;100.00;101172.09;107926;1254;61763;-78
2022/12/25 05:44:01;;;;;;;11.00;6.60;;;;;;;5.32;100.00;101175.34;107693;1264;59230;-77
2022/12/25 05:46:30;;;;;;;8.30;6.10;;;;;;;5.40;100.00;101176.07;107883;1260;74489;-76
2022/12/25 05:48:59;;;;;;;8.60;6.10;;;;;;;5.44;100.00;101179.84;107791;1267;60737;-76
2022/12/25 05:51:29;;;;;;;9.70;6.10;;;;;;;5.47;100.00;101180.39;107770;1257;59860;-81
2022/12/25 05:53:58;;;;;;;8.70;6.90;;;;;;;5.46;100.00;101178.05;107907;1254;63611;-76
2022/12/25 05:56:27;;;;;;;8.50;6.50;;;;;;;5.42;100.00;101179.57;107916;1254;61574;-76
2022/12/25 05:58:56;;;;;;;8.60;7.00;;;;;;;5.34;100.00;101180.63;107777;1261;59911;-76
2022/12/25 06:01:27;;;;;;;9.30;6.40;;;;;;;5.41;100.00;101187.23;107614;1257;63232;-75
2022/12/25 06:03:56;;;;;;;8.80;6.50;;;;;;;5.41;100.00;101187.75;107622;1266;57458;-78
2022/12/25 06:06:25;;;;;;;11.40;7.10;;;;;;;5.36;100.00;101192.80;107687;1259;57728;-78
2022/12/25 06:08:55;;;;;;;9.40;6.90;;;;;;;5.39;100.00;101193.70;107816;1259;62704;-78
2022/12/25 06:11:23;;;;;;;8.90;6.70;;;;;;;5.38;100.00;101195.11;107661;1254;72166;-78
2022/12/25 06:13:52;;;;;;;8.30;6.20;;;;;;;5.35;100.00;101193.00;107737;1265;59634;-81
2022/12/25 06:16:21;;;;;;;9.90;6.50;;;;;;;5.35;100.00;101193.88;107767;1264;62496;-79
2022/12/25 06:18:51;;;;;;;9.40;6.30;;;;;;;5.37;100.00;101193.09;107784;1259;57172;-78
2022/12/25 06:21:19;;;;;;;11.40;7.70;;;;;;;5.35;100.00;101198.38;107808;1260;61190;-79
2022/12/25 06:23:48;;;;;;;10.50;7.40;;;;;;;5.33;100.00;101202.59;107820;1269;62722;-77
2022/12/25 06:26:18;;;;;;;10.00;7.60;;;;;;;5.39;100.00;101202.51;107804;1256;61037;-79
2022/12/25 06:28:47;;;;;;;9.80;7.80;;;;;;;5.40;100.00;101208.17;107731;1269;59964;-74
2022/12/25 06:31:20;;;;;;;11.10;7.50;;;;;;;5.40;100.00;101214.05;107672;1265;62495;-75
2022/12/25 06:33:49;;;;;;;;;;;;;;;5.48;100.00;101219.58;107734;1266;57072;-76
2022/12/25 06:36:22;;;;;;;7.80;5.90;;;;;;;5.48;100.00;101218.53;107804;1255;60147;-75
2022/12/25 06:38:52;;;;;;;10.10;6.50;;;;;;;5.46;100.00;101224.50;107720;1260;74191;-71
2022/12/25 06:41:24;;;;;;;9.20;6.70;;;;;;;5.41;100.00;101225.73;107758;1256;62400;-69
2022/12/25 06:43:56;;;;;;;10.50;6.90;;;;;;;5.41;100.00;101236.83;107810;1263;69417;-81
2022/12/25 06:46:28;;;;;;;8.20;5.40;;;;;;;5.33;100.00;101240.79;107630;1266;63660;-80
2022/12/25 06:48:58;;;;;;;9.70;6.90;;;;;;;5.36;100.00;101249.64;107653;1256;58026;-76
2022/12/25 06:51:30;;;;;;;8.20;6.50;;;;;;;5.39;100.00;101254.49;107664;1259;57378;-78
2022/12/25 06:54:03;;;;;;;9.10;6.50;;;;;;;5.46;100.00;101263.03;107772;1257;63700;-81
2022/12/25 06:56:33;;;;;;;8.80;7.20;;;;;;;5.41;100.00;101268.92;107686;1259;72887;-80
2022/12/25 06:59:08;;;;;;;8.70;6.80;;;;;;;5.40;100.00;101272.42;107697;1267;59503;-79
2022/12/25 07:01:46;;;;;;;10.50;7.20;;;;;;;5.34;100.00;101284.61;107574;1263;63281;-84
2022/12/25 07:04:22;;;;;;;9.00;7.00;;;;;;;5.38;100.00;101284.79;107581;1266;57079;-81
2022/12/25 07:06:51;;;;;;;9.60;6.80;;;;;;;5.38;100.00;101288.73;107703;1260;57722;-83
2022/12/25 07:09:20;;;;;;;11.20;8.00;;;;;;;5.33;100.00;101293.79;107716;1260;64553;-86
2022/12/25 07:11:49;;;;;;;12.10;8.00;;;;;;;5.26;100.00;101291.33;107743;1260;61509;-83
2022/12/25 07:14:21;;;;;;;9.80;7.10;;;;;;;5.33;100.00;101288.79;107798;1258;60324;-86
2022/12/25 07:16:52;;;;;;;9.50;6.70;;;;;;;5.47;100.00;101290.79;107610;1262;73816;-81
2022/12/25 07:19:21;;;;;;;10.70;7.40;;;;;;;5.42;100.00;101290.49;107701;1258;61587;-86
2022/12/25 07:21:50;;;;;;;12.50;8.30;;;;;;;5.42;100.00;101299.81;107687;1262;60372;-89
2022/12/25 07:24:20;;;;;;;11.20;8.10;;;;;;;5.32;100.00;101301.94;107732;1259;73878;-88
2022/12/25 07:26:50;;;;;;;10.80;7.70;;;;;;;5.36;100.00;101299.56;107702;1259;61531;-88
2022/12/25 07:29:19;;;;;;;9.90;7.40;;;;;;;5.29;100.00;101299.14;107775;1259;60109;-91
2022/12/25 07:31:49;;;;;;;10.40;7.70;;;;;;;5.33;100.00;101306.06;107781;1266;63360;-87
2022/12/25 07:34:18;;;;;;;11.70;7.90;;;;;;;5.40;100.00;101308.70;107724;1263;61885;-90
2022/12/25 07:36:47;;;;;;;11.80;7.90;;;;;;;5.37;100.00;101310.54;107639;1263;57945;-89
2022/12/25 07:39:16;;;;;;;10.30;7.10;;;;;;;5.32;100.00;101314.73;107798;1258;62085;-88
2022/12/25 07:41:45;;;;;;;9.70;7.50;;;;;;;5.36;100.00;101319.91;107920;1254;61125;-90
2022/12/25 07:44:33;;;;;;;10.80;7.50;;;;;;;5.37;100.00;101323.84;107612;1269;59392;-89
2022/12/25 07:47:14;;;;;;;9.90;7.30;;;;;;;5.45;100.00;101327.33;107643;1266;71243;-89
2022/12/25 07:49:43;;;;;;;9.80;6.80;;;;;;;5.46;100.00;101337.66;107673;1259;60888;-90
2022/12/25 07:52:11;;;;;;;10.10;7.40;;;;;;;5.47;100.00;101343.83;107532;1262;60826;-84
2022/12/25 07:54:40;;;;;;;8.80;6.90;;;;;;;5.45;100.00;101346.85;107780;1256;63444;-88
2022/12/25 07:57:09;;;;;;;10.10;7.10;;;;;;;5.49;100.00;101346.52;107920;1263;69120;-86
2022/12/25 07:59:38;;;;;;;8.30;6.40;;;;;;;5.50;100.00;101354.75;107808;1258;69518;-86
2022/12/25 08:02:14;;;;;;;8.40;5.70;;;;;;;5.57;100.00;101361.54;107784;1260;71969;-86
2022/12/25 08:04:43;;;;;;;10.70;7.40;;;;;;;5.48;100.00;101363.13;107772;1267;57748;-87
2022/12/25 08:07:13;;;;;;;10.50;7.50;;;;;;;5.44;100.00;101354.46;107754;1259;61121;-84
2022/12/25 08:09:42;;;;;;;11.70;8.30;;;;;;;5.48;100.00;101367.09;107766;1256;72601;-85
2022/12/25 08:12:10;;;;;;;9.80;7.50;;;;;;;5.43;100.00;101374.39;107866;1252;71197;-78
2022/12/25 08:14:39;;;;;;;10.70;7.10;;;;;;;5.43;100.00;101374.20;107659;1263;60431;-85
2022/12/25 08:17:08;;;;;;;7.30;5.60;;;;;;;5.45;100.00;101374.15;107562;1259;62922;-88
2022/12/25 08:19:37;;;;;;;8.80;7.00;;;;;;;5.47;100.00;101375.11;107692;1262;57542;-83
2022/12/25 08:22:06;;;;;;;11.00;6.80;;;;;;;5.36;100.00;101377.27;107605;1263;60401;-83
2022/12/25 08:24:35;;;;;;;11.40;6.80;;;;;;;5.42;100.00;101385.14;107613;1250;74068;-89
2022/12/25 08:27:03;;;;;;;11.30;7.30;;;;;;;5.43;100.00;101383.56;107635;1257;71776;-88
2022/12/25 08:29:32;;;;;;;11.80;7.10;;;;;;;5.38;100.00;101386.52;107660;1267;60192;-87
2022/12/25 08:32:01;;;;;;;7.80;6.60;;;;;;;5.39;100.00;101387.67;107530;1264;62545;-86
2022/12/25 08:34:30;;;;;;;9.40;6.20;;;;;;;5.47;100.00;101388.38;107630;1264;63619;-86
2022/12/25 08:36:59;;;;;;;12.00;6.80;;;;;;;5.50;100.00;101391.73;107722;1258;60578;-88
2022/12/25 08:39:27;;;;;;;8.80;6.00;;;;;;;5.44;100.00;101393.19;107684;1261;72930;-86
2022/12/25 08:41:56;;;;;;;11.00;6.70;;;;;;;5.51;100.00;101394.30;107770;1255;71322;-87
2022/12/25 08:44:25;;;;;;;9.70;6.90;;;;;;;5.51;100.00;101401.36;107626;1267;59909;-85
2022/12/25 08:46:54;;;;;;;9.00;6.40;;;;;;;5.51;100.00;101406.55;107554;1254;72897;-86
2022/12/25 08:49:26;;;;;;;8.40;6.50;;;;;;;5.55;100.00;101411.75;107504;1256;62076;-86
2022/12/25 08:51:55;;;;;;;9.00;5.90;;;;;;;5.57;100.00;101412.70;107636;1258;61526;-90
2022/12/25 08:54:24;;;;;;;9.70;6.00;;;;;;;5.57;100.00;101413.20;107512;1266;73959;-88
2022/12/25 08:56:52;;;;;;;11.10;5.80;;;;;;;5.55;100.00;101412.96;107762;1260;71749;-86
2022/12/25 08:59:29;;;;;;;7.70;4.70;;;;;;;5.53;100.00;101419.41;107742;1263;71728;-87
2022/12/25 09:01:58;;;;;;;9.30;5.50;;;;;;;5.57;100.00;101420.46;107507;1260;62970;-87
2022/12/25 09:04:27;;;;;;;9.00;5.40;;;;;;;5.51;100.00;101424.36;107537;1266;62020;-88
2022/12/25 09:06:56;;;;;;;9.20;5.80;;;;;;;5.54;100.00;101427.50;107640;1267;57210;-88
2022/12/25 09:09:27;;;;;;;9.50;6.50;;;;;;;5.56;100.00;101426.74;107570;1254;62228;-90
2022/12/25 09:11:55;;;;;;;9.30;5.70;;;;;;;5.54;100.00;101430.61;107423;1258;63360;-87
2022/12/25 09:14:24;;;;;;;8.60;6.00;;;;;;;5.55;100.00;101435.60;107757;1254;71017;-86
2022/12/25 09:16:53;;;;;;;10.00;6.20;;;;;;;5.55;100.00;101435.95;107462;1270;63236;-87
2022/12/25 09:19:22;;;;;;;9.50;6.60;;;;;;;5.56;100.00;101436.73;107573;1264;57661;-86
2022/12/25 09:21:51;;;;;;;8.90;6.20;;;;;;;5.60;100.00;101436.45;107655;1262;60440;-86
2022/12/25 09:24:20;;;;;;;9.70;6.80;;;;;;;5.64;100.00;101436.10;107794;1264;74629;-88
2022/12/25 09:26:49;;;;;;;10.70;6.40;;;;;;;5.65;100.00;101441.23;107903;1259;72354;-85
2022/12/25 09:29:17;;;;;;;7.60;5.90;;;;;;;5.63;100.00;101449.63;107702;1258;70913;-86
2022/12/25 09:31:46;;;;;;;10.10;6.10;;;;;;;5.68;100.00;101446.80;107715;1259;63130;-83
2022/12/25 09:34:15;;;;;;;10.00;6.30;;;;;;;5.69;100.00;101450.77;108191;1253;57612;-86
2022/12/25 09:36:46;;;;;;;9.90;6.80;;;;;;;5.71;100.00;101457.25;108191;1256;57732;-84
2022/12/25 09:39:15;;;;;;;10.50;5.50;;;;;;;5.72;100.00;101457.20;108233;1252;62912;-87
2022/12/25 09:41:58;;;;;;;9.20;6.00;;;;;;;5.72;100.00;101458.92;108416;1248;71381;-87
2022/12/25 09:44:39;;;;;;;10.50;6.90;;;;;;;5.85;100.00;101459.63;108120;1256;59938;-87
2022/12/25 09:47:15;;;;;;;8.00;5.20;;;;;;;5.86;100.00;101458.88;108263;1253;63229;-88
2022/12/25 09:50:06;;;;;;;11.00;6.40;;;;;;;5.84;100.00;101461.73;108257;1257;63449;-87
2022/12/25 09:52:56;;;;;;;11.00;6.20;;;;;;;5.85;100.00;101456.49;108339;1249;57655;-85
2022/12/25 09:55:29;;;;;;;10.50;6.90;;;;;;;5.90;99.98;101455.98;108304;1252;63064;-87
2022/12/25 09:58:00;;;;;;;;;;;;;;;5.97;99.91;101456.05;108430;1245;61764;-86
2022/12/25 10:00:40;;;;;;;11.90;7.20;;;;;;;5.93;99.90;101456.21;108259;1254;60666;-87
2022/12/25 10:03:39;;;;;;;13.00;6.80;;;;;;;6.03;99.99;101456.66;108157;1252;73865;-85
2022/12/25 10:06:45;;;;;;;12.20;7.70;;;;;;;6.05;99.44;101454.86;108435;1247;61711;-86
2022/12/25 10:10:01;;;;;;;10.00;6.50;;;;;;;6.07;99.56;101457.86;108511;1251;60724;-87
2022/12/25 10:13:04;;;;;;;14.40;6.90;;;;;;;6.19;99.43;101458.61;108306;1256;63347;-87
2022/12/25 10:16:14;;;;;;;11.60;7.30;;;;;;;6.28;99.34;101458.73;108335;1250;72133;-88
2022/12/25 10:19:04;;;;;;;11.30;7.00;;;;;;;6.36;99.22;101456.80;108211;1249;60274;-87
2022/12/25 10:21:33;;;;;;;12.10;7.80;;;;;;;6.45;98.21;101454.89;107155;1249;1484038;-88
2022/12/25 10:25:01;;;;;;;12.90;8.10;;;;;;;6.45;98.52;101447.64;108269;1251;60697;-87
2022/12/25 10:27:41;;;;;;;11.80;8.00;;;;;;;6.49;97.64;101451.09;108367;1260;60258;-85
2022/12/25 10:30:23;;;;;;;11.40;7.80;;;;;;;6.42;98.19;101450.15;108266;1259;63386;-87
2022/12/25 10:32:55;;;;;;;13.60;8.70;;;;;;;6.59;97.41;101448.70;108484;1251;60754;-88
2022/12/25 10:35:28;;;;;;;11.90;8.20;;;;;;;6.70;97.05;101454.15;108368;1251;60159;-89
2022/12/25 10:38:05;;;;;;;14.80;9.10;;;;;;;6.82;96.32;101449.95;108167;1257;73814;-89
2022/12/25 10:41:01;;;;;;;14.80;8.80;;;;;;;6.78;95.52;101454.80;108131;1260;57112;-87
2022/12/25 10:43:45;;;;;;;11.40;7.50;;;;;;;6.72;95.36;101452.99;108409;1257;57703;-88
2022/12/25 10:46:15;;;;;;;10.20;6.70;;;;;;;6.85;95.36;101460.59;108331;1251;73506;-87
2022/12/25 10:48:58;;;;;;;13.20;9.00;;;;;;;6.88;94.35;101464.21;108363;1246;61006;-86
2022/12/25 10:51:38;;;;;;;12.90;8.30;;;;;;;6.86;94.07;101463.97;108382;1256;70480;-86
2022/12/25 10:54:34;;;;;;;12.00;7.90;;;;;;;6.90;93.60;101468.64;108339;1253;74744;-85
2022/12/25 10:57:16;;;;;;;15.40;7.60;;;;;;;6.93;93.29;101465.77;108145;1256;61744;-87
2022/12/25 10:59:51;;;;;;;13.40;9.10;;;;;;;6.95;93.52;101464.43;108304;1253;61231;-87
2022/12/25 11:02:35;;;;;;;13.10;8.50;;;;;;;7.01;93.20;101468.14;108373;1256;63420;-85
2022/12/25 11:05:13;;;;;;;14.10;9.20;;;;;;;6.97;93.07;101470.92;108366;1250;61479;-85
2022/12/25 11:07:53;;;;;;;13.70;7.90;;;;;;;7.02;92.76;101474.17;108314;1256;59123;-87
2022/12/25 11:10:35;;;;;;;13.50;9.10;;;;;;;7.12;92.11;101478.53;108276;1252;74521;-85
2022/12/25 11:13:16;;;;;;;16.00;10.50;;;;;;;7.09;92.66;101479.90;108305;1261;57621;-85
2022/12/25 11:16:01;;;;;;;15.00;8.90;;;;;;;7.08;93.18;101480.14;108176;1255;59336;-87
2022/12/25 11:18:48;;;;;;;13.80;9.20;;;;;;;7.17;92.32;101481.77;108301;1259;73118;-87
2022/12/25 11:21:29;;;;;;;15.00;8.20;;;;;;;7.19;91.89;101492.10;108260;1248;71717;-87
2022/12/25 11:24:06;;;;;;;16.70;9.30;;;;;;;7.11;92.54;101496.27;108252;1253;71169;-88
2022/12/25 11:26:53;;;;;;;18.90;11.60;;;;;;;7.24;91.80;101497.08;108167;1250;73090;-87
2022/12/25 11:29:46;;;;;;;20.10;11.50;;;;;;;7.25;91.14;101498.06;108258;1251;62259;-88
2022/12/25 11:32:30;;;;;;;15.90;10.40;;;;;;;7.25;90.34;101496.33;108366;1255;61368;-87
2022/12/25 11:35:00;;;;;;;17.80;10.50;;;;;;;7.27;90.49;101500.58;108384;1251;74561;-86
2022/12/25 11:37:49;;;;;;;16.50;10.80;;;;;;;7.26;90.45;101497.48;108156;1247;61288;-86
2022/12/25 11:40:47;;;;;;;17.20;9.50;;;;;;;7.37;89.98;101496.63;108218;1262;59974;-86
2022/12/25 11:43:20;;;;;;;16.00;9.80;;;;;;;7.30;89.44;101499.04;108216;1251;62830;-88
2022/12/25 11:46:16;;;;;;;18.80;12.00;;;;;;;7.37;89.48;101498.71;108388;1248;57548;-87
2022/12/25 11:49:00;;;;;;;18.80;11.20;;;;;;;7.36;89.34;101490.25;108259;1248;60512;-86
2022/12/25 11:51:36;;;;;;;20.20;10.70;;;;;;;7.50;88.70;101493.79;108121;1265;73178;-88
2022/12/25 11:54:29;;;;;;;17.90;10.50;;;;;;;7.50;87.57;101493.08;108411;1248;71614;-86
2022/12/25 11:57:03;;;;;;;18.50;11.80;;;;;;;7.51;87.74;101500.66;108234;1256;70961;-85
2022/12/25 11:59:50;;;;;;;18.60;11.10;;;;;;;7.51;88.25;101503.27;108306;1253;72762;-87
2022/12/25 12:02:42;;;;;;;21.30;12.30;;;;;;;7.48;88.24;101515.34;108213;1251;57090;-86
2022/12/25 12:05:24;;;;;;;18.60;11.20;;;;;;;7.43;88.49;101523.23;108192;1253;59714;-86
2022/12/25 12:08:01;;;;;;;18.20;9.50;;;;;;;7.33;88.39;101518.13;108245;1253;73536;-88
2022/12/25 12:10:53;;;;;;;19.60;11.30;;;;;;;7.35;88.06;101526.89;108326;1250;71469;-89
2022/12/25 12:13:44;;;;;;;14.20;9.00;;;;;;;7.23;88.52;101527.09;108342;1256;61801;-87
2022/12/25 12:16:13;;;;;;;13.30;9.10;;;;;;;7.23;87.41;101524.67;108197;1253;73442;-86
2022/12/25 12:18:43;;;;;;;13.50;8.40;;;;;;;7.26;87.07;101527.66;108326;1253;62854;-88
2022/12/25 12:21:29;;;;;;;12.50;7.40;;;;;;;7.22;86.48;101536.16;108307;1253;60783;-89
2022/12/25 12:24:16;;;;;;;12.90;8.60;;;;;;;7.23;86.13;101531.93;108041;1251;63366;-86
2022/12/25 12:27:01;;;;;;;14.10;8.90;;;;;;;7.18;86.29;101529.90;108293;1247;71382;-87
2022/12/25 12:29:43;;;;;;;14.10;8.50;;;;;;;7.16;86.19;101530.16;108096;1258;69251;-86
2022/12/25 12:32:43;;;;;;;16.90;9.40;;;;;;;7.07;86.73;101534.20;108054;1258;71847;-88
2022/12/25 12:35:25;;;;;;;15.50;9.20;;;;;;;7.07;87.13;101538.70;108133;1256;62658;-90
2022/12/25 12:38:01;;;;;;;14.30;8.80;;;;;;;7.06;87.13;101541.89;108262;1248;61627;-87
2022/12/25 12:40:41;;;;;;;15.60;7.90;;;;;;;6.96;87.74;101548.58;107995;1255;73377;-85
2022/12/25 12:43:46;;;;;;;12.10;7.80;;;;;;;6.95;87.65;101551.01;108352;1263;61621;-86
2022/12/25 12:46:27;;;;;;;14.10;8.50;;;;;;;6.88;88.31;101561.21;108342;1253;69789;-84
2022/12/25 12:49:23;;;;;;;14.40;9.10;;;;;;;6.97;88.36;101556.48;108322;1259;74110;-86
2022/12/25 12:52:19;;;;;;;;;;;;;;;6.99;88.27;101564.52;108189;1254;57178;-88
2022/12/25 12:55:11;;;;;;;18.80;9.30;;;;;;;6.98;88.23;101571.86;108265;1249;60558;-85
2022/12/25 12:57:41;;;;;;;13.00;8.20;;;;;;;6.90;88.41;101573.40;108158;1261;64632;-88
2022/12/25 13:00:15;;;;;;;15.40;8.90;;;;;;;6.88;88.65;101580.23;108243;1253;60814;-86
2022/12/25 13:03:04;;;;;;;14.00;7.50;;;;;;;6.95;88.37;101584.45;108270;1247;69584;-85
2022/12/25 13:05:46;;;;;;;13.10;7.80;;;;;;;6.93;88.59;101592.33;108241;1260;74200;-85
2022/12/25 13:08:18;;;;;;;14.50;7.70;;;;;;;6.96;88.36;101586.16;108135;1259;57713;-87
2022/12/25 13:11:09;;;;;;;13.50;8.90;;;;;;;6.88;88.80;101589.61;108265;1258;57744;-89
2022/12/25 13:13:42;;;;;;;13.10;7.50;;;;;;;6.93;88.28;101595.95;108210;1259;62180;-86
2022/12/25 13:16:30;;;;;;;15.20;8.80;;;;;;;6.94;87.93;101595.73;108345;1261;61642;-87
2022/12/25 13:19:04;;;;;;;13.20;7.50;;;;;;;6.87;88.32;101599.70;108331;1262;59019;-84
2022/12/25 13:21:34;;;;;;;15.50;8.20;;;;;;;6.91;88.27;101599.17;108148;1256;71334;-87
2022/12/25 13:24:17;;;;;;;14.80;8.90;;;;;;;6.95;88.15;101594.33;108049;1254;57593;-86
2022/12/25 13:26:46;;;;;;;15.50;8.10;;;;;;;6.93;87.99;101594.41;108134;1259;61169;-86
2022/12/25 13:29:37;;;;;;;13.00;7.30;;;;;;;6.87;88.51;101600.88;108354;1252;73347;-86
2022/12/25 13:32:25;;;;;;;12.90;6.80;;;;;;;6.89;88.31;101606.52;108415;1254;61665;-85